createdAt,value
2017-10-19T00:01:17.460Z,8.98
2017-10-19T00:03:43.730Z,8.93
2017-10-19T00:06:10.013Z,8.89
2017-10-19T00:08:36.302Z,8.92
2017-10-19T00:11:02.581Z,8.82
2017-10-19T00:13:28.840Z,8.80
2017-10-19T00:15:55.111Z,8.80
2017-10-19T00:18:21.380Z,8.74
2017-10-19T00:20:47.812Z,8.74
2017-10-19T00:23:14.094Z,8.77
2017-10-19T00:25:40.344Z,8.68
2017-10-19T00:28:06.617Z,8.69
2017-10-19T00:30:32.884Z,8.64
2017-10-19T00:32:59.157Z,8.64
2017-10-19T00:35:25.425Z,8.65
2017-10-19T00:37:51.739Z,8.65
2017-10-19T00:40:18.023Z,8.67
2017-10-19T00:42:44.291Z,8.66
2017-10-19T00:45:10.551Z,8.64
2017-10-19T00:47:36.808Z,8.59
2017-10-19T00:50:03.129Z,8.56
2017-10-19T00:52:29.391Z,8.49
2017-10-19T00:54:55.698Z,8.39
2017-10-19T00:57:21.963Z,8.39
2017-10-19T00:59:48.241Z,8.33
2017-10-19T01:02:14.519Z,8.25
2017-10-19T01:04:40.784Z,8.27
2017-10-19T01:07:07.067Z,8.21
2017-10-19T01:09:33.343Z,8.17
2017-10-19T01:11:59.622Z,8.13
2017-10-19T01:14:25.891Z,8.11
2017-10-19T01:16:52.164Z,8.12
2017-10-19T01:19:18.443Z,8.11
2017-10-19T01:21:44.716Z,8.08
2017-10-19T01:24:10.993Z,8.04
2017-10-19T01:26:37.397Z,7.99
2017-10-19T01:29:03.710Z,8.05
2017-10-19T01:31:30.002Z,8.00
2017-10-19T01:33:56.269Z,8.00
2017-10-19T01:36:22.525Z,8.02
2017-10-19T01:38:48.791Z,8.00
2017-10-19T01:41:15.072Z,7.97
2017-10-19T01:43:41.369Z,7.85
2017-10-19T01:46:07.647Z,7.77
2017-10-19T01:48:33.915Z,7.72
2017-10-19T01:51:00.248Z,7.74
2017-10-19T01:53:26.529Z,7.74
2017-10-19T01:55:52.811Z,7.68
2017-10-19T01:58:19.106Z,7.62
2017-10-19T02:00:45.379Z,7.60
2017-10-19T02:03:11.659Z,7.66
2017-10-19T02:05:37.951Z,7.84
2017-10-19T02:08:04.264Z,7.87
2017-10-19T02:10:30.563Z,7.75
2017-10-19T02:12:56.841Z,7.98
2017-10-19T02:15:23.131Z,7.96
2017-10-19T02:17:49.398Z,8.00
2017-10-19T02:20:15.662Z,7.88
2017-10-19T02:22:41.952Z,7.78
2017-10-19T02:25:08.236Z,7.77
2017-10-19T02:27:34.504Z,7.80
2017-10-19T02:30:00.816Z,7.75
2017-10-19T02:32:27.103Z,7.82
2017-10-19T02:34:53.399Z,7.68
2017-10-19T02:37:19.689Z,7.54
2017-10-19T02:39:45.965Z,7.51
2017-10-19T02:42:12.240Z,7.45
2017-10-19T02:44:38.529Z,7.45
2017-10-19T02:47:04.804Z,7.36
2017-10-19T02:49:31.092Z,7.50
2017-10-19T02:51:57.362Z,7.43
2017-10-19T02:54:23.671Z,7.49
2017-10-19T02:56:49.919Z,7.68
2017-10-19T02:59:16.180Z,7.69
2017-10-19T03:01:42.459Z,7.52
2017-10-19T03:04:08.732Z,7.52
2017-10-19T03:06:35.015Z,7.60
2017-10-19T03:09:01.287Z,7.63
2017-10-19T03:11:27.597Z,7.52
2017-10-19T03:13:53.874Z,7.62
2017-10-19T03:16:20.157Z,7.58
2017-10-19T03:18:46.610Z,7.59
2017-10-19T03:21:12.890Z,7.59
2017-10-19T03:23:39.182Z,7.57
2017-10-19T03:26:05.489Z,7.46
2017-10-19T03:28:31.814Z,7.36
2017-10-19T03:30:58.087Z,7.30
2017-10-19T03:33:24.368Z,7.21
2017-10-19T03:35:50.656Z,7.11
2017-10-19T03:38:16.949Z,7.05
2017-10-19T03:40:43.266Z,7.03
2017-10-19T03:43:09.533Z,7.17
2017-10-19T03:45:35.809Z,7.09
2017-10-19T03:48:02.117Z,7.17
2017-10-19T03:50:28.398Z,7.05
2017-10-19T03:52:54.703Z,6.94
2017-10-19T03:55:21.042Z,6.86
2017-10-19T03:57:47.321Z,6.81
2017-10-19T04:00:13.577Z,6.99
2017-10-19T04:02:39.850Z,6.91
2017-10-19T04:05:06.170Z,6.85
2017-10-19T04:07:32.549Z,6.87
2017-10-19T04:09:58.819Z,6.80
2017-10-19T04:12:25.103Z,6.75
2017-10-19T04:14:51.376Z,6.72
2017-10-19T04:17:17.662Z,6.65
2017-10-19T04:19:43.929Z,6.57
2017-10-19T04:22:10.192Z,6.55
2017-10-19T04:24:36.469Z,6.60
2017-10-19T04:27:02.742Z,6.54
2017-10-19T04:29:29.066Z,6.51
2017-10-19T04:31:55.319Z,6.46
2017-10-19T04:34:21.589Z,6.48
2017-10-19T04:36:47.861Z,6.67
2017-10-19T04:39:14.142Z,6.66
2017-10-19T04:41:40.471Z,6.62
2017-10-19T04:44:06.736Z,6.67
2017-10-19T04:46:33.023Z,6.68
2017-10-19T04:48:59.335Z,6.68
2017-10-19T04:51:25.603Z,6.74
2017-10-19T04:53:51.895Z,6.94
2017-10-19T04:56:18.169Z,7.07
2017-10-19T04:58:44.493Z,7.49
2017-10-19T05:01:10.784Z,8.52
2017-10-19T05:03:37.073Z,9.53
2017-10-19T05:06:03.357Z,10.48
2017-10-19T05:10:55.712Z,12.18
2017-10-19T05:13:21.996Z,12.73
2017-10-19T05:15:48.272Z,13.32
2017-10-19T05:18:14.557Z,13.73
2017-10-19T05:20:40.818Z,13.99
2017-10-19T05:23:07.064Z,14.74
2017-10-19T05:25:33.349Z,14.87
2017-10-19T05:27:59.607Z,14.47
2017-10-19T05:30:25.988Z,14.53
2017-10-19T05:32:52.251Z,14.56
2017-10-19T05:35:18.531Z,14.66
2017-10-19T05:37:44.786Z,14.75
2017-10-19T05:40:11.049Z,14.59
2017-10-19T05:42:37.308Z,14.51
2017-10-19T05:45:03.588Z,14.66
2017-10-19T05:47:29.882Z,14.57
2017-10-19T05:49:56.144Z,14.51
2017-10-19T05:52:22.409Z,15.04
2017-10-19T05:54:48.662Z,15.46
2017-10-19T05:57:14.974Z,16.37
2017-10-19T05:59:41.229Z,17.40
2017-10-19T06:02:07.499Z,18.97
2017-10-19T06:04:33.798Z,19.63
2017-10-19T06:07:00.056Z,18.73
2017-10-19T06:09:26.491Z,18.71
2017-10-19T06:11:52.750Z,18.58
2017-10-19T06:14:19.026Z,18.68
2017-10-19T06:16:45.342Z,19.30
2017-10-19T06:19:11.595Z,20.03
2017-10-19T06:21:37.860Z,21.19
2017-10-19T06:24:04.156Z,20.96
2017-10-19T06:26:30.418Z,21.01
2017-10-19T06:28:56.692Z,20.77
2017-10-19T06:31:23.015Z,20.43
2017-10-19T06:33:49.275Z,20.22
2017-10-19T06:36:15.528Z,20.45
2017-10-19T06:38:41.845Z,20.62
2017-10-19T06:41:08.125Z,20.19
2017-10-19T06:43:34.397Z,19.79
2017-10-19T06:46:00.715Z,19.78
2017-10-19T06:48:26.979Z,19.41
2017-10-19T06:50:53.240Z,19.23
2017-10-19T06:53:19.549Z,18.95
2017-10-19T06:55:45.807Z,18.75
2017-10-19T06:58:12.077Z,18.49
2017-10-19T07:00:38.379Z,18.85
2017-10-19T07:03:04.654Z,19.42
2017-10-19T07:05:30.939Z,19.82
2017-10-19T07:07:57.251Z,19.99
2017-10-19T07:10:23.526Z,20.05
2017-10-19T07:12:49.811Z,20.13
2017-10-19T07:15:16.126Z,20.74
2017-10-19T07:17:42.411Z,20.98
2017-10-19T07:20:08.678Z,21.27
2017-10-19T07:22:34.991Z,21.44
2017-10-19T07:25:01.263Z,21.64
2017-10-19T07:27:27.528Z,22.87
2017-10-19T07:29:53.840Z,23.64
2017-10-19T07:32:20.118Z,23.47
2017-10-19T07:34:46.400Z,23.66
2017-10-19T07:37:12.777Z,24.10
2017-10-19T07:39:39.052Z,24.15
2017-10-19T07:42:05.337Z,24.66
2017-10-19T07:44:31.634Z,24.22
2017-10-19T07:46:57.922Z,23.73
2017-10-19T07:49:24.219Z,23.28
2017-10-19T07:51:50.534Z,24.08
2017-10-19T07:54:16.802Z,24.29
2017-10-19T07:56:43.081Z,24.70
2017-10-19T07:59:09.395Z,24.48
2017-10-19T08:01:35.681Z,24.58
2017-10-19T08:04:01.975Z,24.95
2017-10-19T08:06:28.312Z,25.26
2017-10-19T08:08:54.602Z,25.22
2017-10-19T08:11:20.879Z,24.82
2017-10-19T08:13:47.189Z,25.02
2017-10-19T08:16:13.484Z,25.07
2017-10-19T08:18:39.782Z,25.27
2017-10-19T08:21:06.126Z,25.51
2017-10-19T08:23:32.415Z,26.19
2017-10-19T08:25:58.703Z,26.67
2017-10-19T08:28:25.035Z,27.12
2017-10-19T08:30:51.325Z,27.63
2017-10-19T08:33:17.625Z,27.78
2017-10-19T08:35:43.935Z,28.49
2017-10-19T08:38:10.219Z,28.11
2017-10-19T08:40:36.505Z,29.00
2017-10-19T08:43:02.820Z,29.22
2017-10-19T08:45:29.084Z,29.35
2017-10-19T08:47:55.351Z,29.30
2017-10-19T08:50:21.662Z,29.43
2017-10-19T08:52:48.122Z,29.74
2017-10-19T08:55:14.417Z,29.36
2017-10-19T08:57:40.851Z,29.19
2017-10-19T09:00:07.114Z,29.29
2017-10-19T09:02:33.436Z,29.50
2017-10-19T09:04:59.838Z,30.08
2017-10-19T09:07:26.303Z,30.60
2017-10-19T09:09:52.576Z,30.62
2017-10-19T09:12:18.857Z,30.62
2017-10-19T09:14:45.157Z,30.67
2017-10-19T09:17:11.636Z,31.20
2017-10-19T09:19:37.898Z,31.86
2017-10-19T09:22:04.171Z,31.94
2017-10-19T09:24:30.446Z,31.92
2017-10-19T09:26:56.742Z,32.62
2017-10-19T09:29:23.028Z,33.17
2017-10-19T09:31:49.305Z,33.57
2017-10-19T09:34:15.616Z,33.13
2017-10-19T09:36:41.887Z,33.79
2017-10-19T09:39:08.207Z,34.27
2017-10-19T09:41:34.470Z,36.14
2017-10-19T09:44:00.755Z,35.87
2017-10-19T09:46:27.082Z,36.46
2017-10-19T09:48:53.362Z,37.05
2017-10-19T09:51:19.634Z,36.33
2017-10-19T09:53:45.939Z,36.74
2017-10-19T09:56:12.325Z,36.76
2017-10-19T09:58:38.767Z,37.92
2017-10-19T10:01:05.049Z,38.50
2017-10-19T10:03:31.344Z,38.67
2017-10-19T10:05:57.676Z,39.43
2017-10-19T10:08:23.963Z,38.67
2017-10-19T10:10:50.231Z,38.23
2017-10-19T10:13:16.534Z,37.40
2017-10-19T10:15:42.801Z,37.33
2017-10-19T10:18:09.091Z,37.04
2017-10-19T10:20:35.363Z,37.04
2017-10-19T10:23:01.626Z,36.94
2017-10-19T10:25:27.970Z,37.24
2017-10-19T10:27:54.240Z,37.47
2017-10-19T10:30:20.518Z,38.04
2017-10-19T10:32:46.812Z,38.46
2017-10-19T10:35:13.083Z,38.37
2017-10-19T10:37:39.362Z,38.24
2017-10-19T10:40:05.645Z,38.08
2017-10-19T10:42:31.916Z,37.87
2017-10-19T10:44:58.193Z,37.23
2017-10-19T10:47:24.475Z,38.00
2017-10-19T10:49:50.738Z,38.35
2017-10-19T10:52:17.194Z,38.22
2017-10-19T10:54:43.459Z,37.55
2017-10-19T10:57:09.736Z,37.85
2017-10-19T10:59:36.068Z,37.75
2017-10-19T11:02:02.334Z,37.47
2017-10-19T11:04:28.613Z,37.04
2017-10-19T11:06:54.926Z,36.70
2017-10-19T11:09:21.203Z,36.02
2017-10-19T11:11:47.473Z,35.95
2017-10-19T11:14:13.742Z,36.18
2017-10-19T11:16:40.011Z,36.74
2017-10-19T11:19:06.268Z,37.19
2017-10-19T11:21:32.764Z,37.14
2017-10-19T11:23:59.027Z,37.04
2017-10-19T11:26:25.287Z,36.45
2017-10-19T11:28:51.562Z,36.82
2017-10-19T11:31:17.840Z,37.11
2017-10-19T11:33:44.103Z,36.85
2017-10-19T11:36:10.420Z,37.52
2017-10-19T11:38:36.684Z,37.20
2017-10-19T11:41:02.993Z,36.12
2017-10-19T11:43:29.251Z,36.26
2017-10-19T11:45:55.517Z,35.72
2017-10-19T11:48:21.799Z,35.50
2017-10-19T11:50:48.101Z,35.68
2017-10-19T11:53:14.525Z,36.62
2017-10-19T11:55:40.786Z,37.32
2017-10-19T11:58:07.058Z,36.93
2017-10-19T12:00:33.417Z,37.19
2017-10-19T12:02:59.766Z,36.03
2017-10-19T12:05:26.037Z,35.69
2017-10-19T12:07:52.354Z,36.88
2017-10-19T12:10:18.626Z,38.19
2017-10-19T12:12:44.883Z,38.09
2017-10-19T12:17:42.572Z,36.77
2017-10-19T12:20:08.835Z,37.81
2017-10-19T12:22:35.455Z,36.71
2017-10-19T12:25:01.720Z,37.25
2017-10-19T12:27:27.993Z,36.96
2017-10-19T12:29:54.297Z,37.49
2017-10-19T12:32:20.577Z,38.12
2017-10-19T12:34:46.834Z,38.27
2017-10-19T12:39:44.996Z,38.48
2017-10-19T12:42:11.258Z,38.00
2017-10-19T12:44:37.559Z,36.27
2017-10-19T12:47:03.862Z,35.62
2017-10-19T12:49:30.125Z,35.79
2017-10-19T12:51:56.384Z,36.85
2017-10-19T12:54:22.645Z,36.16
2017-10-19T12:56:48.935Z,34.86
2017-10-19T12:59:15.197Z,35.89
2017-10-19T13:01:41.505Z,35.99
2017-10-19T13:04:07.810Z,36.45
2017-10-19T13:06:34.059Z,37.29
2017-10-19T13:09:00.330Z,37.01
2017-10-19T13:11:26.638Z,36.88
2017-10-19T13:13:52.901Z,36.48
2017-10-19T13:16:19.171Z,36.82
2017-10-19T13:18:45.440Z,36.24
2017-10-19T13:21:11.704Z,36.46
2017-10-19T13:23:37.992Z,36.49
2017-10-19T13:26:04.247Z,36.03
2017-10-19T13:28:30.545Z,34.50
2017-10-19T13:30:56.837Z,33.42
2017-10-19T13:33:23.108Z,31.93
2017-10-19T13:35:49.371Z,31.55
2017-10-19T13:38:15.667Z,30.76
2017-10-19T13:40:41.923Z,29.96
2017-10-19T13:43:08.199Z,29.65
2017-10-19T13:45:34.453Z,29.00
2017-10-19T13:48:00.716Z,28.41
2017-10-19T13:50:27.014Z,28.07
2017-10-19T13:52:53.277Z,27.74
2017-10-19T13:55:19.544Z,27.45
2017-10-19T13:57:45.827Z,27.15
2017-10-19T14:00:12.082Z,26.83
2017-10-19T14:02:38.394Z,26.53
2017-10-19T14:05:04.664Z,26.23
2017-10-19T14:07:30.956Z,26.00
2017-10-19T14:09:57.252Z,25.72
2017-10-19T14:12:23.527Z,25.38
2017-10-19T14:14:50.178Z,25.06
2017-10-19T14:17:16.659Z,24.79
2017-10-19T14:19:43.210Z,24.54
2017-10-19T14:22:09.532Z,24.37
2017-10-19T14:24:35.804Z,24.20
2017-10-19T14:27:02.086Z,24.03
2017-10-19T14:29:28.367Z,23.86
2017-10-19T14:31:54.765Z,23.64
2017-10-19T14:34:21.045Z,23.41
2017-10-19T14:36:47.417Z,23.19
2017-10-19T14:39:13.720Z,23.04
2017-10-19T14:41:40.032Z,22.83
2017-10-19T14:44:06.292Z,22.66
2017-10-19T14:46:32.551Z,22.55
2017-10-19T14:48:58.839Z,22.41
2017-10-19T14:51:25.097Z,22.25
2017-10-19T14:53:51.386Z,22.06
2017-10-19T14:56:17.641Z,21.84
2017-10-19T14:58:43.890Z,21.69
2017-10-19T15:01:10.224Z,21.53
2017-10-19T15:03:36.507Z,21.44
2017-10-19T15:06:02.789Z,21.19
2017-10-19T15:08:29.044Z,21.12
2017-10-19T15:10:55.302Z,20.93
2017-10-19T15:13:25.453Z,20.75
2017-10-19T15:15:51.730Z,20.60
2017-10-19T15:18:17.987Z,20.46
2017-10-19T15:20:44.308Z,20.26
2017-10-19T15:23:10.573Z,20.07
2017-10-19T15:25:36.849Z,19.88
2017-10-19T15:28:03.120Z,19.79
2017-10-19T15:30:29.382Z,19.72
2017-10-19T15:32:55.638Z,19.51
2017-10-19T15:35:21.903Z,19.38
2017-10-19T15:37:48.161Z,19.20
2017-10-19T15:40:14.421Z,19.09
2017-10-19T15:42:40.676Z,18.92
2017-10-19T15:45:07.010Z,18.82
2017-10-19T15:47:33.266Z,18.69
2017-10-19T15:49:59.507Z,18.54
2017-10-19T15:52:25.752Z,18.44
2017-10-19T15:54:51.992Z,18.35
2017-10-19T15:57:18.294Z,18.31
2017-10-19T15:59:44.566Z,18.21
2017-10-19T16:02:10.813Z,18.15
2017-10-19T16:04:37.060Z,18.05
2017-10-19T16:07:03.312Z,17.93
2017-10-19T16:09:29.607Z,17.75
2017-10-19T16:11:55.864Z,17.77
2017-10-19T16:14:22.100Z,17.61
2017-10-19T16:16:48.336Z,17.49
2017-10-19T16:19:14.576Z,17.43
2017-10-19T16:21:40.828Z,17.33
2017-10-19T16:24:07.204Z,17.25
2017-10-19T16:26:33.446Z,17.11
2017-10-19T16:28:59.696Z,16.97
2017-10-19T16:31:25.949Z,16.92
2017-10-19T16:33:52.219Z,16.85
2017-10-19T16:36:18.468Z,16.83
2017-10-19T16:38:44.704Z,16.74
2017-10-19T16:41:11.124Z,16.68
2017-10-19T16:43:37.400Z,16.63
2017-10-19T16:46:03.676Z,16.64
2017-10-19T16:48:29.970Z,16.56
2017-10-19T16:50:56.269Z,16.45
2017-10-19T16:53:22.581Z,16.41
2017-10-19T16:55:48.867Z,16.30
2017-10-19T16:58:15.132Z,16.24
2017-10-19T17:00:41.415Z,16.18
2017-10-19T17:03:07.712Z,16.04
2017-10-19T17:05:34.019Z,16.00
2017-10-19T17:08:00.326Z,15.91
2017-10-19T17:10:26.606Z,15.82
2017-10-19T17:12:52.913Z,15.64
2017-10-19T17:15:19.147Z,15.59
2017-10-19T17:17:45.410Z,15.47
2017-10-19T17:20:11.798Z,15.39
2017-10-19T17:22:38.048Z,15.30
2017-10-19T17:25:04.332Z,15.27
2017-10-19T17:27:30.574Z,15.28
2017-10-19T17:29:56.834Z,15.34
2017-10-19T17:32:23.108Z,15.29
2017-10-19T17:34:49.372Z,15.27
2017-10-19T17:37:15.659Z,15.27
2017-10-19T17:39:41.926Z,15.19
2017-10-19T17:42:08.211Z,15.07
2017-10-19T17:44:34.463Z,15.05
2017-10-19T17:47:00.739Z,14.96
2017-10-19T17:49:27.051Z,14.87
2017-10-19T17:51:53.304Z,14.80
2017-10-19T17:54:19.554Z,14.74
2017-10-19T17:56:45.857Z,14.73
2017-10-19T17:59:12.104Z,14.71
2017-10-19T18:01:38.349Z,14.61
2017-10-19T18:04:04.728Z,14.53
2017-10-19T18:06:31.070Z,14.42
2017-10-19T18:08:57.368Z,14.39
2017-10-19T18:11:23.675Z,14.32
2017-10-19T18:13:49.923Z,14.18
2017-10-19T18:16:16.393Z,14.09
2017-10-19T18:18:42.675Z,14.04
2017-10-19T18:21:08.911Z,13.99
2017-10-19T18:23:35.191Z,13.87
2017-10-19T18:26:01.451Z,13.76
2017-10-19T18:28:27.854Z,13.71
2017-10-19T18:30:54.142Z,13.61
2017-10-19T18:33:20.387Z,13.73
2017-10-19T18:35:46.645Z,13.82
2017-10-19T18:38:12.901Z,13.82
2017-10-19T18:40:39.172Z,13.74
2017-10-19T18:43:05.475Z,13.63
2017-10-19T18:45:31.771Z,13.61
2017-10-19T18:47:58.037Z,13.49
2017-10-19T18:50:24.576Z,13.43
2017-10-19T18:52:50.831Z,13.32
2017-10-19T18:55:17.458Z,13.40
2017-10-19T18:57:44.105Z,13.30
2017-10-19T19:00:10.519Z,13.23
2017-10-19T19:02:36.983Z,13.15
2017-10-19T19:05:03.481Z,13.04
2017-10-19T19:07:30.006Z,12.91
2017-10-19T19:09:56.462Z,12.91
2017-10-19T19:12:23.107Z,12.81
2017-10-19T19:14:49.555Z,12.89
2017-10-19T19:17:15.823Z,12.84
2017-10-19T19:19:42.284Z,12.80
2017-10-19T19:22:08.552Z,12.68
2017-10-19T19:24:34.799Z,12.60
2017-10-19T19:27:01.059Z,12.47
2017-10-19T19:29:27.344Z,12.53
2017-10-19T19:31:53.638Z,12.40
2017-10-19T19:34:19.908Z,12.49
2017-10-19T19:36:46.393Z,12.47
2017-10-19T19:39:12.660Z,12.28
2017-10-19T19:41:38.913Z,12.15
2017-10-19T19:44:05.184Z,12.11
2017-10-19T19:46:31.448Z,12.03
2017-10-19T19:48:57.719Z,12.17
2017-10-19T19:51:23.983Z,12.21
2017-10-19T19:53:50.235Z,12.11
2017-10-19T19:56:16.518Z,12.07
2017-10-19T19:58:42.766Z,11.93
2017-10-19T20:01:09.024Z,11.90
2017-10-19T20:03:35.276Z,12.00
2017-10-19T20:06:01.532Z,12.02
2017-10-19T20:08:27.805Z,12.06
2017-10-19T20:10:54.069Z,12.02
2017-10-19T20:13:20.332Z,11.96
2017-10-19T20:15:46.572Z,11.90
2017-10-19T20:18:12.838Z,11.89
2017-10-19T20:20:39.143Z,11.92
2017-10-19T20:23:05.397Z,11.89
2017-10-19T20:25:31.645Z,11.90
2017-10-19T20:27:57.912Z,11.75
2017-10-19T20:30:24.163Z,11.61
2017-10-19T20:32:50.432Z,11.56
2017-10-19T20:35:16.682Z,11.51
2017-10-19T20:37:42.933Z,11.41
2017-10-19T20:40:09.196Z,11.44
2017-10-19T20:42:35.454Z,11.46
2017-10-19T20:45:01.758Z,11.56
2017-10-19T20:47:28.021Z,11.57
2017-10-19T20:49:54.291Z,11.46
2017-10-19T20:52:20.546Z,11.48
2017-10-19T20:54:46.997Z,11.39
2017-10-19T20:57:13.302Z,11.37
2017-10-19T20:59:39.623Z,11.26
2017-10-19T21:02:05.887Z,11.25
2017-10-19T21:04:32.129Z,11.21
2017-10-19T21:06:58.385Z,11.09
2017-10-19T21:09:24.636Z,11.26
2017-10-19T21:11:50.879Z,11.25
2017-10-19T21:14:17.116Z,11.33
2017-10-19T21:16:43.355Z,11.27
2017-10-19T21:19:09.605Z,11.15
2017-10-19T21:21:35.834Z,11.03
2017-10-19T21:24:02.109Z,11.02
2017-10-19T21:26:28.389Z,10.99
2017-10-19T21:28:54.687Z,10.89
2017-10-19T21:31:20.944Z,10.78
2017-10-19T21:33:47.250Z,10.63
2017-10-19T21:36:13.503Z,10.59
2017-10-19T21:38:39.761Z,10.66
2017-10-19T21:41:06.019Z,10.61
2017-10-19T21:43:32.356Z,10.59
2017-10-19T21:45:58.628Z,10.41
2017-10-19T21:48:24.882Z,10.56
2017-10-19T21:50:51.131Z,10.58
2017-10-19T21:53:17.394Z,10.55
2017-10-19T21:55:43.648Z,10.53
2017-10-19T21:58:09.946Z,10.53
2017-10-19T22:00:36.185Z,10.43
2017-10-19T22:03:02.439Z,10.39
2017-10-19T22:05:28.676Z,10.44
2017-10-19T22:07:55.048Z,10.32
2017-10-19T22:10:21.348Z,10.27
2017-10-19T22:12:47.602Z,10.23
2017-10-19T22:15:13.868Z,10.09
2017-10-19T22:17:40.058Z,10.09
2017-10-19T22:20:06.255Z,10.00
2017-10-19T22:22:32.468Z,10.00
2017-10-19T22:24:58.677Z,9.98
2017-10-19T22:27:24.900Z,9.94
2017-10-19T22:29:51.092Z,9.90
2017-10-19T22:32:17.276Z,9.85
2017-10-19T22:34:43.478Z,9.79
2017-10-19T22:37:09.682Z,9.73
2017-10-19T22:39:35.857Z,9.76
2017-10-19T22:42:02.066Z,9.66
2017-10-19T22:44:28.284Z,9.60
2017-10-19T22:46:54.500Z,9.47
2017-10-19T22:49:20.690Z,9.57
2017-10-19T22:51:46.866Z,9.77
2017-10-19T22:54:13.071Z,9.70
2017-10-19T22:56:39.264Z,9.64
2017-10-19T22:59:05.601Z,9.55
2017-10-19T23:01:31.819Z,9.77
2017-10-19T23:03:58.010Z,9.77
2017-10-19T23:06:24.208Z,9.69
2017-10-19T23:08:50.414Z,9.74
2017-10-19T23:11:16.770Z,9.70
2017-10-19T23:13:43.014Z,9.60
2017-10-19T23:16:09.257Z,9.51
2017-10-19T23:18:35.507Z,9.52
2017-10-19T23:21:01.765Z,9.50
2017-10-19T23:23:28.064Z,9.45
2017-10-19T23:25:54.350Z,9.40
2017-10-19T23:28:20.595Z,9.33
2017-10-19T23:30:47.022Z,9.20
2017-10-19T23:33:13.280Z,9.21
2017-10-19T23:35:39.574Z,9.19
2017-10-19T23:38:05.812Z,9.27
2017-10-19T23:40:32.070Z,9.23
2017-10-19T23:42:58.364Z,9.15
2017-10-19T23:45:24.617Z,9.09
2017-10-19T23:47:50.889Z,9.04
2017-10-19T23:50:17.167Z,8.95
2017-10-19T23:52:43.504Z,9.04
2017-10-19T23:55:09.756Z,9.00
2017-10-19T23:57:36.014Z,9.06
